createdAt,value
2019-03-24T00:01:40.775Z,103.32
2019-03-24T00:04:02.744Z,113.55
2019-03-24T00:06:31.268Z,107.65
2019-03-24T00:08:59.718Z,101.60
2019-03-24T00:11:28.148Z,98.97
2019-03-24T00:13:56.600Z,96.80
2019-03-24T00:16:25.024Z,102.38
2019-03-24T00:18:53.462Z,88.85
2019-03-24T00:21:21.866Z,86.55
2019-03-24T00:23:50.371Z,86.08
2019-03-24T00:26:18.855Z,85.40
2019-03-24T00:28:47.292Z,97.97
2019-03-24T00:31:15.715Z,87.15
2019-03-24T00:33:44.165Z,89.62
2019-03-24T00:36:12.545Z,108.67
2019-03-24T00:38:41.009Z,109.60
2019-03-24T00:41:09.496Z,113.72
2019-03-24T00:43:37.953Z,118.57
2019-03-24T00:46:06.358Z,108.70
2019-03-24T00:48:34.811Z,112.65
2019-03-24T00:51:03.212Z,105.10
2019-03-24T00:53:31.653Z,98.33
2019-03-24T00:56:00.063Z,96.32
2019-03-24T00:58:28.500Z,93.33
2019-03-24T01:00:56.901Z,90.20
2019-03-24T01:03:25.446Z,76.97
2019-03-24T01:05:53.976Z,72.45
2019-03-24T01:08:22.515Z,76.90
2019-03-24T01:10:50.922Z,81.85
2019-03-24T01:13:19.393Z,89.75
2019-03-24T01:15:48.357Z,90.38
2019-03-24T01:18:16.868Z,91.45
2019-03-24T01:20:45.367Z,83.05
2019-03-24T01:23:13.812Z,86.05
2019-03-24T01:25:42.266Z,83.22
2019-03-24T01:28:10.680Z,85.85
2019-03-24T01:30:39.124Z,95.50
2019-03-24T01:33:07.624Z,96.40
2019-03-24T01:35:36.049Z,112.95
2019-03-24T01:38:04.541Z,103.87
2019-03-24T01:40:33.291Z,103.40
2019-03-24T01:43:01.877Z,115.72
2019-03-24T01:45:30.364Z,119.97
2019-03-24T01:47:58.784Z,113.32
2019-03-24T01:50:27.232Z,102.10
2019-03-24T01:52:55.662Z,106.50
2019-03-24T01:55:24.126Z,114.95
2019-03-24T01:57:52.564Z,116.55
2019-03-24T02:00:21.096Z,110.80
2019-03-24T02:02:49.521Z,110.50
2019-03-24T02:05:17.956Z,87.80
2019-03-24T02:07:46.446Z,83.55
2019-03-24T02:10:15.848Z,78.12
2019-03-24T02:12:44.281Z,74.80
2019-03-24T02:15:13.091Z,73.02
2019-03-24T02:17:41.583Z,87.33
2019-03-24T02:20:10.491Z,101.25
2019-03-24T02:22:38.978Z,104.60
2019-03-24T02:25:08.068Z,104.63
2019-03-24T02:27:36.550Z,106.55
2019-03-24T02:30:08.749Z,109.17
2019-03-24T02:32:37.310Z,111.28
2019-03-24T02:35:07.164Z,114.88
2019-03-24T02:37:35.940Z,124.90
2019-03-24T02:40:09.167Z,118.85
2019-03-24T02:42:37.624Z,112.42
2019-03-24T02:45:07.197Z,118.15
2019-03-24T02:47:35.638Z,109.35
2019-03-24T02:50:04.799Z,121.35
2019-03-24T02:52:33.244Z,118.10
2019-03-24T02:55:01.747Z,116.20
2019-03-24T02:57:30.195Z,115.12
2019-03-24T02:59:58.610Z,100.12
2019-03-24T03:02:27.077Z,112.77
2019-03-24T03:04:55.501Z,110.35
2019-03-24T03:07:23.939Z,115.70
2019-03-24T03:09:52.466Z,101.25
2019-03-24T03:12:20.913Z,95.50
2019-03-24T03:14:49.320Z,96.47
2019-03-24T03:17:17.830Z,95.50
2019-03-24T03:19:46.321Z,94.07
2019-03-24T03:22:14.769Z,91.15
2019-03-24T03:24:43.186Z,96.37
2019-03-24T03:27:11.633Z,111.08
2019-03-24T03:29:40.072Z,106.07
2019-03-24T03:32:08.516Z,100.05
2019-03-24T03:34:36.952Z,99.28
2019-03-24T03:37:05.477Z,90.90
2019-03-24T03:39:33.924Z,99.40
2019-03-24T03:42:02.501Z,106.90
2019-03-24T03:44:30.947Z,118.42
2019-03-24T03:46:59.371Z,132.40
2019-03-24T03:49:27.829Z,132.18
2019-03-24T03:51:56.250Z,141.05
2019-03-24T03:54:24.735Z,130.05
2019-03-24T03:56:53.279Z,134.37
2019-03-24T03:59:21.717Z,128.47
2019-03-24T04:01:50.143Z,124.47
2019-03-24T04:04:18.573Z,131.67
2019-03-24T04:06:47.013Z,129.90
2019-03-24T04:09:15.467Z,124.10
2019-03-24T04:11:43.882Z,123.25
2019-03-24T04:14:12.326Z,109.10
2019-03-24T04:16:40.759Z,113.50
2019-03-24T04:19:09.213Z,116.90
2019-03-24T04:21:37.625Z,109.65
2019-03-24T04:24:06.069Z,100.42
2019-03-24T04:26:34.497Z,102.78
2019-03-24T04:29:02.943Z,113.52
2019-03-24T04:31:31.348Z,96.40
2019-03-24T04:33:59.813Z,98.00
2019-03-24T04:36:28.282Z,87.72
2019-03-24T04:38:56.713Z,82.97
2019-03-24T04:41:25.163Z,88.75
2019-03-24T04:43:53.572Z,93.27
2019-03-24T04:46:22.014Z,99.42
2019-03-24T04:48:50.432Z,104.53
2019-03-24T04:51:18.878Z,109.78
2019-03-24T04:53:47.290Z,98.10
2019-03-24T04:56:15.716Z,94.65
2019-03-24T04:58:44.138Z,102.38
2019-03-24T05:01:12.570Z,96.80
2019-03-24T05:03:41.076Z,127.72
2019-03-24T05:06:09.595Z,133.55
2019-03-24T05:08:38.157Z,133.27
2019-03-24T05:11:06.601Z,123.45
2019-03-24T05:13:35.027Z,100.27
2019-03-24T05:16:03.468Z,108.63
2019-03-24T05:18:31.914Z,102.47
2019-03-24T05:21:00.409Z,93.80
2019-03-24T05:23:28.874Z,87.65
2019-03-24T05:25:57.287Z,84.60
2019-03-24T05:28:25.728Z,92.35
2019-03-24T05:30:54.234Z,87.88
2019-03-24T05:33:22.681Z,86.32
2019-03-24T05:35:51.098Z,80.28
2019-03-24T05:38:19.512Z,72.92
2019-03-24T05:40:47.948Z,71.17
2019-03-24T05:43:16.383Z,81.35
2019-03-24T05:45:44.825Z,83.60
2019-03-24T05:48:13.348Z,92.20
2019-03-24T05:50:41.772Z,100.50
2019-03-24T05:53:10.222Z,102.17
2019-03-24T05:55:38.637Z,102.72
2019-03-24T05:58:07.081Z,106.47
2019-03-24T06:00:35.508Z,125.33
2019-03-24T06:03:03.965Z,130.57
2019-03-24T06:05:32.391Z,102.82
2019-03-24T06:08:00.844Z,101.58
2019-03-24T06:10:29.286Z,102.60
2019-03-24T06:12:57.772Z,120.00
2019-03-24T06:15:26.213Z,103.40
2019-03-24T06:17:54.707Z,98.37
2019-03-24T06:20:23.149Z,95.30
2019-03-24T06:22:51.571Z,104.23
2019-03-24T06:25:20.040Z,95.15
2019-03-24T06:27:48.514Z,103.38
2019-03-24T06:30:17.084Z,88.27
2019-03-24T06:32:45.521Z,90.00
2019-03-24T06:35:14.032Z,96.15
2019-03-24T06:37:42.449Z,107.43
2019-03-24T06:40:11.221Z,101.30
2019-03-24T06:42:39.636Z,105.90
2019-03-24T06:45:08.724Z,96.92
2019-03-24T06:47:37.138Z,101.92
2019-03-24T06:50:07.342Z,100.78
2019-03-24T06:52:35.909Z,100.15
2019-03-24T06:55:04.717Z,88.87
2019-03-24T06:57:33.195Z,85.87
2019-03-24T07:00:01.621Z,89.13
2019-03-24T07:02:30.129Z,87.20
2019-03-24T07:04:58.616Z,89.00
2019-03-24T07:07:27.020Z,81.67
2019-03-24T07:09:55.453Z,88.00
2019-03-24T07:12:23.878Z,90.42
2019-03-24T07:14:52.326Z,88.37
2019-03-24T07:17:20.758Z,84.52
2019-03-24T07:19:49.200Z,88.47
2019-03-24T07:22:17.636Z,92.08
2019-03-24T07:24:46.048Z,90.72
2019-03-24T07:27:14.491Z,94.32
2019-03-24T07:29:42.914Z,99.58
2019-03-24T07:32:11.421Z,93.15
2019-03-24T07:34:39.836Z,94.83
2019-03-24T07:37:08.286Z,98.50
2019-03-24T07:39:36.701Z,90.77
2019-03-24T07:42:05.657Z,93.33
2019-03-24T07:44:34.140Z,110.85
2019-03-24T07:47:05.619Z,96.35
2019-03-24T07:49:34.081Z,100.58
2019-03-24T07:52:02.546Z,109.48
2019-03-24T07:54:30.978Z,108.87
2019-03-24T07:56:59.416Z,95.42
2019-03-24T07:59:27.922Z,140.95
2019-03-24T08:01:56.358Z,109.83
2019-03-24T08:04:24.814Z,108.22
2019-03-24T08:06:53.240Z,108.03
2019-03-24T08:09:21.700Z,99.87
2019-03-24T08:11:50.137Z,104.97
2019-03-24T08:14:18.572Z,106.78
2019-03-24T08:16:47.042Z,107.50
2019-03-24T08:19:15.492Z,109.45
2019-03-24T08:21:43.937Z,103.05
2019-03-24T08:24:12.534Z,113.10
2019-03-24T08:26:41.039Z,114.55
2019-03-24T08:29:11.510Z,122.75
2019-03-24T08:31:40.005Z,128.97
2019-03-24T08:34:09.155Z,117.80
2019-03-24T08:36:37.610Z,124.50
2019-03-24T08:39:06.615Z,120.25
2019-03-24T08:41:35.130Z,126.62
2019-03-24T08:44:03.733Z,122.78
2019-03-24T08:46:32.250Z,128.70
2019-03-24T08:49:00.808Z,117.97
2019-03-24T08:51:29.216Z,107.75
2019-03-24T08:53:57.736Z,110.83
2019-03-24T08:56:26.198Z,116.50
2019-03-24T08:58:54.651Z,111.20
2019-03-24T09:01:23.060Z,120.20
2019-03-24T09:03:51.485Z,117.28
2019-03-24T09:06:19.944Z,112.70
2019-03-24T09:08:49.043Z,122.40
2019-03-24T09:11:17.633Z,117.30
2019-03-24T09:13:46.091Z,112.08
2019-03-24T09:16:14.613Z,112.57
2019-03-24T09:18:51.940Z,107.35
2019-03-24T09:21:13.273Z,99.85
2019-03-24T09:23:41.691Z,108.20
2019-03-24T09:26:10.156Z,102.87
2019-03-24T09:28:38.593Z,105.45
2019-03-24T09:31:07.046Z,105.97
2019-03-24T09:33:35.569Z,100.80
2019-03-24T09:36:04.258Z,109.72
2019-03-24T09:38:32.768Z,107.47
2019-03-24T09:41:01.323Z,103.35
2019-03-24T09:43:29.761Z,100.58
2019-03-24T09:45:58.304Z,107.63
2019-03-24T09:48:26.812Z,106.47
2019-03-24T09:50:55.280Z,95.55
2019-03-24T09:53:23.720Z,106.25
2019-03-24T09:55:52.175Z,104.50
2019-03-24T09:58:20.596Z,99.05
2019-03-24T10:00:49.086Z,105.50
2019-03-24T10:03:17.533Z,95.05
2019-03-24T10:05:45.941Z,100.35
2019-03-24T10:08:14.389Z,96.65
2019-03-24T10:10:42.832Z,95.67
2019-03-24T10:13:11.273Z,96.50
2019-03-24T10:15:39.784Z,93.12
2019-03-24T10:18:08.233Z,100.67
2019-03-24T10:20:36.670Z,98.47
2019-03-24T10:23:05.119Z,95.35
2019-03-24T10:25:33.636Z,87.25
2019-03-24T10:28:02.088Z,92.30
2019-03-24T10:30:30.509Z,96.78
2019-03-24T10:32:58.953Z,87.60
2019-03-24T10:35:27.404Z,91.10
2019-03-24T10:37:55.912Z,93.70
2019-03-24T10:40:28.857Z,94.87
2019-03-24T10:42:54.521Z,88.22
2019-03-24T10:45:23.016Z,94.13
2019-03-24T10:47:51.742Z,92.08
2019-03-24T10:50:20.413Z,99.15
2019-03-24T10:52:49.887Z,94.00
2019-03-24T10:55:18.333Z,97.33
2019-03-24T10:57:46.871Z,91.32
2019-03-24T11:00:20.972Z,98.72
2019-03-24T11:02:49.818Z,93.90
2019-03-24T11:05:18.392Z,90.40
2019-03-24T11:07:46.824Z,91.42
2019-03-24T11:10:15.338Z,94.07
2019-03-24T11:12:43.766Z,96.35
2019-03-24T11:15:12.433Z,89.25
2019-03-24T11:17:40.982Z,80.05
2019-03-24T11:20:09.853Z,85.00
2019-03-24T11:22:38.327Z,83.78
2019-03-24T11:25:08.792Z,90.07
2019-03-24T11:27:37.718Z,94.65
2019-03-24T11:30:09.337Z,75.05
2019-03-24T11:32:38.127Z,83.20
2019-03-24T11:35:07.601Z,83.27
2019-03-24T11:37:36.141Z,81.95
2019-03-24T11:40:09.546Z,84.30
2019-03-24T11:42:38.066Z,74.32
2019-03-24T11:45:08.141Z,81.78
2019-03-24T11:47:36.645Z,76.25
2019-03-24T11:50:07.337Z,72.03
2019-03-24T11:52:35.880Z,73.00
2019-03-24T11:55:06.792Z,69.77
2019-03-24T11:57:35.327Z,65.37
2019-03-24T12:00:12.885Z,72.72
2019-03-24T12:02:41.517Z,73.07
2019-03-24T12:05:10.386Z,78.50
2019-03-24T12:07:38.900Z,78.45
2019-03-24T12:10:09.437Z,81.90
2019-03-24T12:12:37.958Z,74.65
2019-03-24T12:15:07.944Z,71.67
2019-03-24T12:17:36.514Z,81.55
2019-03-24T12:20:08.617Z,78.57
2019-03-24T12:22:37.309Z,76.62
2019-03-24T12:25:06.201Z,69.10
2019-03-24T12:27:34.805Z,79.07
2019-03-24T12:30:04.773Z,73.95
2019-03-24T12:32:33.216Z,72.45
2019-03-24T12:35:01.639Z,74.15
2019-03-24T12:37:30.097Z,70.25
2019-03-24T12:39:58.534Z,73.75
2019-03-24T12:42:26.996Z,71.17
2019-03-24T12:44:55.414Z,67.45
2019-03-24T12:47:23.877Z,75.70
2019-03-24T12:49:52.335Z,71.53
2019-03-24T12:52:20.753Z,72.15
2019-03-24T12:54:49.285Z,73.72
2019-03-24T12:57:17.788Z,70.78
2019-03-24T12:59:46.335Z,69.22
2019-03-24T13:02:14.759Z,73.10
2019-03-24T13:04:43.213Z,70.20
2019-03-24T13:07:11.653Z,72.97
2019-03-24T13:09:40.117Z,70.37
2019-03-24T13:12:08.807Z,71.87
2019-03-24T13:14:37.249Z,72.00
2019-03-24T13:17:05.673Z,70.50
2019-03-24T13:19:36.125Z,70.87
2019-03-24T13:22:04.403Z,68.17
2019-03-24T13:24:32.854Z,69.27
2019-03-24T13:27:01.301Z,71.72
2019-03-24T13:29:29.745Z,68.87
2019-03-24T13:31:58.258Z,72.75
2019-03-24T13:34:26.705Z,70.72
2019-03-24T13:36:55.142Z,72.08
2019-03-24T13:39:23.670Z,70.52
2019-03-24T13:41:52.228Z,74.50
2019-03-24T13:44:20.697Z,66.05
2019-03-24T13:46:49.129Z,73.22
2019-03-24T13:49:17.569Z,70.67
2019-03-24T13:51:46.020Z,69.58
2019-03-24T13:54:14.475Z,72.90
2019-03-24T13:56:42.929Z,75.70
2019-03-24T13:59:11.372Z,71.82
2019-03-24T14:01:39.829Z,70.97
2019-03-24T14:04:08.331Z,66.35
2019-03-24T14:06:36.804Z,61.85
2019-03-24T14:09:07.461Z,66.57
2019-03-24T14:11:36.002Z,62.78
2019-03-24T14:14:04.695Z,69.75
2019-03-24T14:16:33.158Z,66.47
2019-03-24T14:19:02.477Z,69.50
2019-03-24T14:21:30.936Z,68.30
2019-03-24T14:23:59.355Z,68.25
2019-03-24T14:26:27.892Z,68.12
2019-03-24T14:28:56.317Z,66.10
2019-03-24T14:31:24.764Z,64.32
2019-03-24T14:33:53.192Z,67.62
2019-03-24T14:36:21.649Z,66.42
2019-03-24T14:38:50.083Z,65.20
2019-03-24T14:41:18.543Z,63.33
2019-03-24T14:43:46.976Z,65.50
2019-03-24T14:46:15.496Z,66.17
2019-03-24T14:48:43.997Z,64.40
2019-03-24T14:51:12.445Z,69.40
2019-03-24T14:53:40.961Z,65.17
2019-03-24T14:56:09.474Z,63.65
2019-03-24T14:58:37.976Z,66.42
2019-03-24T15:01:06.422Z,65.47
2019-03-24T15:03:34.932Z,65.20
2019-03-24T15:06:03.391Z,65.50
2019-03-24T15:08:31.913Z,65.05
2019-03-24T15:11:00.377Z,66.12
2019-03-24T15:13:28.822Z,63.45
2019-03-24T15:15:57.256Z,62.78
2019-03-24T15:18:25.708Z,66.62
2019-03-24T15:21:04.901Z,63.52
2019-03-24T15:23:24.398Z,62.17
2019-03-24T15:25:52.847Z,67.40
2019-03-24T15:28:21.293Z,60.83
2019-03-24T15:30:49.718Z,65.15
2019-03-24T15:33:18.226Z,67.55
2019-03-24T15:35:46.664Z,71.57
2019-03-24T15:38:17.651Z,65.10
2019-03-24T15:40:45.829Z,66.67
2019-03-24T15:43:14.304Z,63.05
2019-03-24T15:45:42.716Z,60.78
2019-03-24T15:48:12.772Z,63.55
2019-03-24T15:50:41.221Z,60.28
2019-03-24T15:53:09.714Z,69.00
2019-03-24T15:55:38.189Z,66.02
2019-03-24T15:58:06.628Z,67.82
2019-03-24T16:00:43.030Z,66.62
2019-03-24T16:03:11.644Z,67.45
2019-03-24T16:05:40.213Z,65.97
2019-03-24T16:08:10.866Z,70.70
2019-03-24T16:10:39.421Z,74.75
2019-03-24T16:13:08.024Z,76.17
2019-03-24T16:15:36.495Z,79.82
2019-03-24T16:18:05.066Z,82.10
2019-03-24T16:20:33.524Z,70.40
2019-03-24T16:23:01.951Z,75.05
2019-03-24T16:25:30.416Z,68.07
2019-03-24T16:27:58.861Z,68.78
2019-03-24T16:30:27.359Z,64.85
2019-03-24T16:32:55.797Z,67.92
2019-03-24T16:35:24.261Z,75.22
2019-03-24T16:37:52.704Z,67.22
2019-03-24T16:40:21.176Z,69.55
2019-03-24T16:42:49.588Z,74.95
2019-03-24T16:45:18.044Z,67.47
2019-03-24T16:47:46.484Z,71.82
2019-03-24T16:50:15.140Z,76.10
2019-03-24T16:52:43.630Z,71.20
2019-03-24T16:55:12.321Z,71.47
2019-03-24T16:57:40.820Z,74.47
2019-03-24T17:00:09.713Z,72.58
2019-03-24T17:02:38.168Z,66.57
2019-03-24T17:05:07.685Z,68.57
2019-03-24T17:07:36.098Z,66.25
2019-03-24T17:10:07.186Z,69.07
2019-03-24T17:12:35.799Z,67.95
2019-03-24T17:15:06.392Z,68.65
2019-03-24T17:17:34.837Z,70.03
2019-03-24T17:20:04.442Z,70.12
2019-03-24T17:22:33.231Z,67.37
2019-03-24T17:25:01.727Z,66.50
2019-03-24T17:27:30.232Z,65.67
2019-03-24T17:29:58.688Z,78.05
2019-03-24T17:32:27.138Z,69.92
2019-03-24T17:34:55.695Z,72.25
2019-03-24T17:37:24.298Z,68.00
2019-03-24T17:39:52.752Z,67.58
2019-03-24T17:42:21.302Z,65.30
2019-03-24T17:44:49.742Z,65.35
2019-03-24T17:47:18.225Z,62.15
2019-03-24T17:49:46.652Z,66.35
2019-03-24T17:52:15.162Z,68.12
2019-03-24T17:54:43.589Z,63.02
2019-03-24T17:57:12.060Z,65.00
2019-03-24T17:59:40.484Z,60.52
2019-03-24T18:02:14.248Z,60.58
2019-03-24T18:04:39.104Z,61.68
2019-03-24T18:07:07.585Z,62.27
2019-03-24T18:09:36.056Z,54.75
2019-03-24T18:12:04.561Z,55.78
2019-03-24T18:14:33.008Z,60.30
2019-03-24T18:17:01.470Z,63.87
2019-03-24T18:19:29.937Z,56.63
2019-03-24T18:21:58.359Z,57.75
2019-03-24T18:24:26.960Z,65.15
2019-03-24T18:26:55.455Z,57.05
2019-03-24T18:29:23.921Z,54.55
2019-03-24T18:31:52.364Z,63.95
2019-03-24T18:34:20.819Z,55.23
2019-03-24T18:36:49.254Z,52.20
2019-03-24T18:39:17.702Z,45.10
2019-03-24T18:41:46.208Z,47.88
2019-03-24T18:44:14.694Z,49.23
2019-03-24T18:46:43.173Z,45.25
2019-03-24T18:49:11.754Z,47.60
2019-03-24T18:51:40.197Z,39.78
2019-03-24T18:54:08.662Z,42.75
2019-03-24T18:56:37.179Z,37.50
2019-03-24T18:59:05.639Z,41.85
2019-03-24T19:01:34.119Z,39.35
2019-03-24T19:04:02.689Z,41.48
2019-03-24T19:06:31.195Z,34.55
2019-03-24T19:08:59.681Z,35.40
2019-03-24T19:11:28.163Z,35.43
2019-03-24T19:13:56.680Z,34.67
2019-03-24T19:16:25.151Z,35.25
2019-03-24T19:18:53.609Z,32.63
2019-03-24T19:21:22.074Z,33.95
2019-03-24T19:23:50.544Z,33.80
2019-03-24T19:26:19.013Z,31.55
2019-03-24T19:28:47.456Z,33.48
2019-03-24T19:31:15.980Z,29.25
2019-03-24T19:33:44.422Z,27.58
2019-03-24T19:36:12.868Z,32.03
2019-03-24T19:38:42.281Z,29.35
2019-03-24T19:41:10.815Z,31.12
2019-03-24T19:43:39.898Z,28.92
2019-03-24T19:46:08.396Z,29.65
2019-03-24T19:48:36.899Z,31.15
2019-03-24T19:51:07.056Z,26.70
2019-03-24T19:53:35.668Z,25.60
2019-03-24T19:56:04.920Z,29.60
2019-03-24T19:58:33.335Z,29.57
2019-03-24T20:01:01.820Z,26.12
2019-03-24T20:03:30.260Z,25.50
2019-03-24T20:05:58.705Z,26.97
2019-03-24T20:08:27.165Z,27.48
2019-03-24T20:10:55.671Z,22.87
2019-03-24T20:13:24.119Z,24.75
2019-03-24T20:15:52.552Z,26.68
2019-03-24T20:18:21.079Z,31.55
2019-03-24T20:20:51.968Z,34.03
2019-03-24T20:23:19.709Z,26.95
2019-03-24T20:25:48.149Z,27.17
2019-03-24T20:28:16.613Z,24.75
2019-03-24T20:30:45.096Z,27.55
2019-03-24T20:33:14.465Z,26.42
2019-03-24T20:35:42.993Z,26.87
2019-03-24T20:38:11.444Z,26.85
2019-03-24T20:40:39.883Z,25.65
2019-03-24T20:43:08.329Z,23.60
2019-03-24T20:45:36.817Z,25.50
2019-03-24T20:48:05.345Z,26.57
2019-03-24T20:50:33.875Z,31.20
2019-03-24T20:53:05.746Z,29.75
2019-03-24T20:55:34.466Z,30.20
2019-03-24T20:58:02.688Z,32.80
2019-03-24T21:00:35.570Z,24.77
2019-03-24T21:03:05.069Z,24.25
2019-03-24T21:05:33.621Z,24.75
2019-03-24T21:08:02.134Z,23.57
2019-03-24T21:10:30.576Z,28.17
2019-03-24T21:12:59.089Z,27.45
2019-03-24T21:15:27.622Z,27.35
2019-03-24T21:17:56.056Z,28.40
2019-03-24T21:20:24.530Z,28.80
2019-03-24T21:22:52.977Z,41.98
2019-03-24T21:25:21.432Z,32.10
2019-03-24T21:27:49.844Z,50.43
2019-03-24T21:30:21.392Z,41.63
2019-03-24T21:32:51.525Z,36.15
2019-03-24T21:35:19.966Z,33.35
2019-03-24T21:37:48.517Z,36.48
2019-03-24T21:40:17.066Z,37.13
2019-03-24T21:42:45.499Z,38.35
2019-03-24T21:45:15.549Z,41.77
2019-03-24T21:47:43.980Z,43.28
2019-03-24T21:50:12.583Z,38.90
2019-03-24T21:52:41.049Z,31.95
2019-03-24T21:55:09.736Z,35.35
2019-03-24T21:57:38.204Z,34.67
2019-03-24T22:00:08.772Z,33.00
2019-03-24T22:02:37.234Z,35.40
2019-03-24T22:05:06.010Z,32.33
2019-03-24T22:07:34.472Z,35.70
2019-03-24T22:10:02.958Z,36.98
2019-03-24T22:12:31.402Z,34.33
2019-03-24T22:14:59.947Z,31.82
2019-03-24T22:17:28.422Z,36.40
2019-03-24T22:19:56.845Z,34.53
2019-03-24T22:22:25.292Z,35.70
2019-03-24T22:24:53.794Z,36.70
2019-03-24T22:27:22.268Z,40.20
2019-03-24T22:29:50.714Z,38.33
2019-03-24T22:32:19.156Z,35.10
2019-03-24T22:34:47.658Z,38.70
2019-03-24T22:37:16.376Z,41.02
2019-03-24T22:39:44.916Z,43.23
2019-03-24T22:42:13.365Z,38.08
2019-03-24T22:44:41.803Z,37.40
2019-03-24T22:47:10.304Z,36.00
2019-03-24T22:49:38.744Z,38.92
2019-03-24T22:52:07.821Z,38.90
2019-03-24T22:54:36.532Z,37.40
2019-03-24T22:57:05.124Z,33.45
2019-03-24T22:59:33.625Z,35.95
2019-03-24T23:02:02.188Z,30.10
2019-03-24T23:04:30.639Z,29.80
2019-03-24T23:06:59.060Z,28.02
2019-03-24T23:09:27.662Z,29.40
2019-03-24T23:11:56.104Z,30.82
2019-03-24T23:14:24.536Z,27.15
2019-03-24T23:16:52.958Z,28.00
2019-03-24T23:19:21.400Z,28.17
2019-03-24T23:21:49.808Z,27.48
2019-03-24T23:24:18.279Z,25.92
2019-03-24T23:26:46.709Z,27.10
2019-03-24T23:29:15.148Z,28.10
2019-03-24T23:31:43.567Z,39.50
2019-03-24T23:34:14.841Z,37.83
2019-03-24T23:36:43.266Z,37.05
2019-03-24T23:39:11.834Z,35.88
2019-03-24T23:41:40.267Z,39.25
2019-03-24T23:44:08.756Z,30.50
2019-03-24T23:46:37.200Z,30.17
2019-03-24T23:49:05.620Z,29.12
2019-03-24T23:51:34.065Z,24.45
2019-03-24T23:54:02.543Z,23.45
2019-03-24T23:56:30.998Z,24.12
2019-03-24T23:58:59.412Z,23.20
